HELX

Luxor International Airport

Luxor, Egypt
TAF HELX 210515Z 2106/2212 VRB03KT CAVOK TEMPO 2106/2109 6000 NSC BECMG 2110/2112 35010KT
Issued Valid From Valid To
Jun-21 @ 05:15 UTC
(5 hours ago)
Jun-21 @ 06:00 UTC
(4 hours ago)
Jun-22 @ 12:00 UTC
(-1 days ago)
Expired Click to View Jun-21 @ 06:00 to Jun-21 @ 10:00
TAF HELX 210515Z 2106/2212 VRB03KT CAVOK
Wind Visibility Clouds Conditions
Variable at 3 knots 10,000+ meters
  • No significant clouds
Expired Click to View Jun-21 @ 06:00 to Jun-21 @ 09:00
TEMPO 2106/2109 6000 NSC
Visibility Clouds
6,003 meters
  • No significant clouds
Becoming Jun-21 @ 10:00 to Jun-22 @ 12:00
BECMG 2110/2112 35010KT
Wind Visibility Clouds Conditions
350° at 10 knots 10,000+ meters
  • No significant clouds
TAF HELX 210515Z 2106/2212 VRB03KT CAVOK TEMPO 2106/2109 6000 NSC BECMG 2110/2112 35010KT
Issued Jun-21 @ 05:15 UTC
(5 hours ago)
Valid From Jun-21 @ 06:00 UTC
(4 hours ago)
Valid To Jun-22 @ 12:00 UTC
(-1 days ago)
Jun-21 @ 06:00 - Jun-21 @ 10:00
Wind Visibility
Variable at 3 knots 10,000+ meters
Clouds
  • No significant clouds
Conditions
Jun-21 @ 06:00 - Jun-21 @ 09:00
Clouds
  • No significant clouds
Becoming Jun-21 @ 10:00 - Jun-22 @ 12:00
Wind Visibility
350° at 10 knots 10,000+ meters
Clouds
  • No significant clouds
Conditions